createdAt,value
2023-04-27T00:05:51.790Z,59.02
2023-04-27T00:20:54.869Z,59.36
2023-04-27T00:36:02.212Z,61.54
2023-04-27T00:51:06.183Z,59.81
2023-04-27T01:06:08.784Z,59.64
2023-04-27T01:21:11.754Z,60.17
2023-04-27T01:36:14.356Z,59.05
2023-04-27T01:51:17.412Z,60.95
2023-04-27T02:06:19.975Z,59.76
2023-04-27T02:21:22.631Z,60.89
2023-04-27T02:36:25.379Z,59.58
2023-04-27T02:51:28.271Z,56.98
2023-04-27T03:06:30.928Z,62.41
2023-04-27T03:21:33.575Z,50.73
2023-04-27T03:36:36.338Z,53.29
2023-04-27T03:51:42.361Z,60.62
2023-04-27T04:06:45.018Z,51.04
2023-04-27T04:21:47.828Z,52.60
2023-04-27T04:36:53.505Z,51.77
2023-04-27T04:51:56.311Z,48.26
2023-04-27T05:07:00.152Z,48.51
2023-04-27T05:22:03.028Z,49.96
2023-04-27T05:37:05.731Z,51.88
2023-04-27T05:52:08.495Z,51.34
2023-04-27T06:07:16.369Z,48.38
2023-04-27T06:22:19.134Z,44.69
2023-04-27T06:37:21.989Z,42.75
2023-04-27T06:52:24.800Z,38.81
2023-04-27T07:07:27.530Z,35.86
2023-04-27T07:22:30.420Z,33.87
2023-04-27T07:37:33.629Z,34.65
2023-04-27T07:52:37.311Z,35.67
2023-04-27T08:07:44.509Z,33.76
2023-04-27T08:22:47.846Z,35.08
2023-04-27T08:37:50.662Z,35.83
2023-04-27T08:52:53.673Z,31.47
2023-04-27T09:08:08.300Z,33.92
2023-04-27T09:23:11.239Z,31.77
2023-04-27T09:38:15.882Z,30.80
2023-04-27T09:53:22.988Z,30.14
2023-04-27T10:08:26.652Z,33.60
2023-04-27T10:23:29.556Z,34.70
2023-04-27T10:38:33.083Z,35.56
2023-04-27T10:53:36.610Z,37.19
2023-04-27T11:08:48.079Z,38.25
2023-04-27T11:23:50.968Z,39.22
2023-04-27T11:38:58.268Z,39.05
2023-04-27T11:54:07.842Z,40.10
2023-04-27T12:09:11.337Z,37.95
2023-04-27T12:24:14.666Z,37.95
2023-04-27T12:39:20.389Z,38.04
2023-04-27T12:54:22.981Z,38.85
2023-04-27T13:09:25.592Z,39.11
2023-04-27T13:24:29.444Z,39.04
2023-04-27T13:39:32.918Z,38.39
2023-04-27T13:54:35.768Z,40.24
2023-04-27T14:09:38.528Z,41.59
2023-04-27T14:24:41.204Z,41.88
2023-04-27T14:39:45.256Z,41.95
2023-04-27T14:54:48.336Z,42.18
2023-04-27T15:09:52.264Z,42.72
2023-04-27T15:24:55.163Z,42.75
2023-04-27T15:39:57.864Z,43.41
2023-04-27T15:55:06.608Z,43.61
2023-04-27T16:10:10.127Z,43.47
2023-04-27T16:25:13.006Z,43.35
2023-04-27T16:40:16.374Z,43.66
2023-04-27T16:55:19.516Z,44.21
2023-04-27T17:10:22.142Z,44.86
2023-04-27T17:25:25.055Z,45.86
2023-04-27T17:40:27.792Z,45.91
2023-04-27T17:55:30.485Z,45.44
2023-04-27T18:10:33.365Z,45.90
2023-04-27T18:25:36.104Z,48.83
2023-04-27T18:40:39.979Z,50.39
2023-04-27T18:55:42.613Z,50.29
2023-04-27T19:10:45.408Z,52.15
2023-04-27T19:25:48.522Z,52.87
2023-04-27T19:40:51.666Z,52.99
2023-04-27T19:55:54.971Z,54.83
2023-04-27T20:10:57.671Z,57.05
2023-04-27T20:26:00.371Z,50.85
2023-04-27T20:41:03.769Z,52.47
2023-04-27T20:56:06.855Z,53.53
2023-04-27T21:11:10.500Z,59.24
2023-04-27T21:26:13.290Z,51.00
2023-04-27T21:41:17.424Z,53.89
2023-04-27T21:56:21.173Z,54.30
2023-04-27T22:11:24.094Z,62.66
2023-04-27T22:26:26.757Z,49.95
2023-04-27T22:41:29.361Z,53.51
2023-04-27T22:56:31.943Z,57.26
2023-04-27T23:11:35.088Z,51.71
2023-04-27T23:26:38.000Z,54.70
2023-04-27T23:41:40.846Z,57.70
2023-04-27T23:56:43.419Z,49.73
